Time;durP1;ratioP1;P1;durP2;ratioP2;P2;SDS_P1;SDS_P2;PMS_P1;PMS_P2;Temp;Humidity;BMP_temperature;BMP_pressure;BME280_temperature;BME280_humidity;BME280_pressure;Samples;Min_cycle;Max_cycle;Signal;HPM_P1;HPM_P2
2023/10/31 00:00:40;;;;;;;40.47;31.05;;;19.20;7.30;;;;;;5067073;28;20046;-63
2023/10/31 00:03:05;;;;;;;40.65;30.45;;;19.50;9.20;;;;;;5065069;28;20064;-62
2023/10/31 00:05:31;;;;;;;37.45;30.73;;;19.40;14.70;;;;;;5066231;28;20441;-62
2023/10/31 00:07:56;;;;;;;42.53;29.08;;;19.40;21.50;;;;;;5066480;28;20206;-63
2023/10/31 00:10:22;;;;;;;41.90;30.80;;;19.80;28.10;;;;;;5066596;28;20055;-62
2023/10/31 00:12:48;;;;;;;39.40;30.08;;;19.40;40.30;;;;;;5070118;28;20036;-62
2023/10/31 00:15:14;;;;;;;38.15;30.88;;;19.40;57.20;;;;;;5066650;28;20663;-63
2023/10/31 00:17:39;;;;;;;47.97;29.63;;;19.00;87.20;;;;;;5066048;28;20079;-61
2023/10/31 00:20:05;;;;;;;38.80;28.65;;;19.40;96.40;;;;;;5064886;28;20514;-63
2023/10/31 00:22:31;;;;;;;42.50;28.98;;;19.00;99.90;;;;;;5066559;28;20456;-64
2023/10/31 00:24:56;;;;;;;39.83;28.70;;;19.20;99.90;;;;;;5066149;28;20037;-62
2023/10/31 00:27:22;;;;;;;41.45;28.05;;;19.00;99.90;;;;;;5066415;28;20044;-64
2023/10/31 00:29:48;;;;;;;31.02;27.25;;;19.50;99.90;;;;;;5066444;28;20076;-63
2023/10/31 00:32:13;;;;;;;38.80;27.75;;;19.60;99.90;;;;;;5066926;28;20043;-62
2023/10/31 00:34:39;;;;;;;39.13;27.00;;;19.60;99.90;;;;;;5069027;28;20045;-63
2023/10/31 00:37:04;;;;;;;45.55;27.10;;;19.20;99.90;;;;;;5070069;28;20051;-63
2023/10/31 00:39:30;;;;;;;40.95;28.50;;;19.30;99.90;;;;;;5069375;28;20056;-63
2023/10/31 00:41:55;;;;;;;50.22;28.05;;;19.60;99.90;;;;;;5066845;28;20032;-62
2023/10/31 00:44:21;;;;;;;44.35;29.20;;;19.60;1.00;;;;;;5070384;28;20090;-62
2023/10/31 00:46:47;;;;;;;49.00;28.15;;;19.10;1.00;;;;;;5068592;28;20092;-67
2023/10/31 00:49:12;;;;;;;45.38;27.27;;;19.00;1.00;;;;;;5053225;28;20086;-67
2023/10/31 00:51:38;;;;;;;48.85;29.70;;;19.10;1.00;;;;;;5068438;28;20040;-67
2023/10/31 00:54:04;;;;;;;42.40;27.25;;;19.30;1.00;;;;;;5070625;28;20044;-67
2023/10/31 00:56:29;;;;;;;41.05;26.42;;;19.60;18.60;;;;;;5069831;28;20521;-67
2023/10/31 00:58:55;;;;;;;44.42;28.02;;;19.00;59.20;;;;;;5069747;28;20044;-67
2023/10/31 01:01:20;;;;;;;40.25;27.90;;;19.40;91.20;;;;;;5082118;28;20041;-67
2023/10/31 01:03:46;;;;;;;40.17;27.10;;;19.30;99.90;;;;;;5053126;28;20040;-67
2023/10/31 01:06:11;;;;;;;46.10;26.90;;;19.00;99.90;;;;;;5069877;28;20041;-66
2023/10/31 01:08:37;;;;;;;44.17;25.92;;;19.70;99.90;;;;;;5068879;28;20624;-66
2023/10/31 01:11:03;;;;;;;46.15;26.92;;;19.20;99.90;;;;;;5066635;28;20414;-67
2023/10/31 01:13:28;;;;;;;53.05;26.80;;;19.50;99.90;;;;;;5068518;28;20052;-67
2023/10/31 01:15:54;;;;;;;51.40;27.52;;;19.50;1.00;;;;;;5069949;28;20513;-67
2023/10/31 01:18:19;;;;;;;44.78;28.15;;;19.70;1.00;;;;;;5067748;28;20057;-67
2023/10/31 01:20:45;;;;;;;46.90;27.50;;;19.30;1.00;;;;;;5061511;28;20063;-66
2023/10/31 01:23:11;;;;;;;50.92;28.63;;;19.80;70.10;;;;;;5069601;28;20060;-67
2023/10/31 01:25:36;;;;;;;47.92;29.67;;;19.30;99.90;;;;;;5069736;28;20094;-67
2023/10/31 01:28:02;;;;;;;45.60;29.60;;;19.20;99.90;;;;;;5071314;28;20055;-67
2023/10/31 01:30:27;;;;;;;52.75;30.00;;;19.20;99.90;;;;;;5069382;28;20060;-67
2023/10/31 01:32:53;;;;;;;44.83;30.88;;;19.90;1.00;;;;;;5068723;28;20037;-67
2023/10/31 01:35:18;;;;;;;50.22;34.25;;;19.60;1.00;;;;;;5069263;28;20041;-67
2023/10/31 01:37:44;;;;;;;50.50;31.63;;;19.20;69.20;;;;;;5069221;28;20040;-66
2023/10/31 01:40:13;;;;;;;45.85;32.22;;;19.90;99.90;;;;;;5069041;28;20494;-67
2023/10/31 01:42:38;;;;;;;43.13;30.85;;;19.60;99.90;;;;;;5068294;28;20826;-67
2023/10/31 01:45:04;;;;;;;39.38;34.92;;;19.20;1.00;;;;;;5068824;28;20119;-67
2023/10/31 01:47:30;;;;;;;38.35;29.65;;;19.50;1.00;;;;;;5068043;28;20486;-67
2023/10/31 01:49:56;;;;;;;39.03;30.65;;;20.00;1.00;;;;;;5069141;28;20063;-67
2023/10/31 01:52:21;;;;;;;46.70;29.17;;;19.60;20.00;;;;;;5084082;28;20041;-67
2023/10/31 01:54:47;;;;;;;35.38;30.63;;;19.30;99.90;;;;;;5068751;28;20478;-67
2023/10/31 01:57:13;;;;;;;47.92;27.20;;;20.00;99.90;;;;;;5068842;28;20417;-67
2023/10/31 01:59:39;;;;;;;39.70;28.00;;;19.90;99.90;;;;;;5068837;28;20048;-67
2023/10/31 02:02:05;;;;;;;42.92;28.85;;;19.90;99.90;;;;;;5068785;28;20043;-67
2023/10/31 02:04:31;;;;;;;35.85;30.98;;;19.90;99.90;;;;;;5068254;28;20068;-67
2023/10/31 02:06:56;;;;;;;45.15;31.88;;;20.40;1.00;;;;;;5068409;28;20037;-67
2023/10/31 02:09:24;;;;;;;37.85;29.95;;;19.90;1.00;;;;;;5068522;28;20045;-67
2023/10/31 02:11:50;;;;;;;41.75;28.23;;;19.30;1.00;;;;;;5071731;28;20504;-67
2023/10/31 02:14:15;;;;;;;38.97;27.60;;;19.80;1.00;;;;;;5068654;28;20402;-67
2023/10/31 02:16:41;;;;;;;40.00;27.85;;;19.50;1.00;;;;;;5067459;28;20490;-67
2023/10/31 02:19:07;;;;;;;40.63;28.42;;;19.80;28.00;;;;;;5067316;28;20118;-67
2023/10/31 02:21:32;;;;;;;29.33;25.08;;;20.10;73.40;;;;;;5064219;28;20109;-67
2023/10/31 02:24:03;;;;;;;35.80;24.17;;;19.80;99.90;;;;;;5067341;28;20040;-67
2023/10/31 02:26:32;;;;;;;38.17;23.73;;;20.10;99.90;;;;;;5067315;28;20040;-67
2023/10/31 02:28:58;;;;;;;39.17;25.42;;;19.70;99.90;;;;;;5067921;28;20514;-67
2023/10/31 02:31:24;;;;;;;29.90;24.75;;;19.40;99.90;;;;;;5068434;28;20040;-67
2023/10/31 02:33:50;;;;;;;38.75;26.52;;;20.50;99.90;;;;;;5067646;28;20561;-67
2023/10/31 02:36:15;;;;;;;33.47;26.70;;;20.10;99.90;;;;;;5067802;28;20588;-67
2023/10/31 02:38:41;;;;;;;39.88;31.67;;;19.90;99.90;;;;;;5067991;28;20047;-67
2023/10/31 02:41:06;;;;;;;39.80;28.50;;;20.10;99.90;;;;;;5067365;28;20037;-67
2023/10/31 02:43:32;;;;;;;33.25;28.23;;;20.10;99.90;;;;;;5067838;28;20043;-67
2023/10/31 02:45:58;;;;;;;31.88;27.77;;;19.30;99.90;;;;;;5068252;28;20066;-66
2023/10/31 02:48:24;;;;;;;30.27;27.05;;;19.30;99.90;;;;;;5067871;28;20052;-68
2023/10/31 02:50:50;;;;;;;35.53;26.50;;;19.90;99.90;;;;;;5065902;28;20055;-67
2023/10/31 02:53:17;;;;;;;31.92;26.65;;;19.50;99.90;;;;;;5067318;28;20040;-67
2023/10/31 02:55:43;;;;;;;31.33;27.23;;;19.80;99.90;;;;;;5067390;28;20043;-66
2023/10/31 02:58:08;;;;;;;32.80;29.17;;;19.40;99.90;;;;;;5066839;28;20386;-66
2023/10/31 03:00:34;;;;;;;37.67;27.67;;;20.00;99.90;;;;;;5082301;28;20040;-67
2023/10/31 03:03:00;;;;;;;37.58;26.63;;;20.00;99.90;;;;;;5082827;28;20514;-67
2023/10/31 03:05:25;;;;;;;34.72;30.90;;;20.00;99.90;;;;;;5067117;28;20466;-63
2023/10/31 03:07:52;;;;;;;35.80;32.08;;;19.30;99.90;;;;;;5067062;28;20123;-70
2023/10/31 03:10:19;;;;;;;38.15;31.42;;;20.10;99.90;;;;;;5067329;28;20482;-69
2023/10/31 03:12:44;;;;;;;30.98;27.17;;;19.90;99.90;;;;;;5067053;28;20056;-69
2023/10/31 03:15:10;;;;;;;31.52;27.40;;;19.80;99.90;;;;;;5067158;28;20051;-69
2023/10/31 03:17:36;;;;;;;30.95;25.83;;;19.70;99.90;;;;;;5066972;28;20608;-69
2023/10/31 03:20:02;;;;;;;31.38;26.35;;;19.60;99.90;;;;;;5060347;28;20529;-70
2023/10/31 03:22:28;;;;;;;29.08;25.00;;;19.90;99.90;;;;;;5063390;28;20027;-70
2023/10/31 03:24:53;;;;;;;29.88;25.10;;;19.30;99.90;;;;;;5065854;28;20097;-70
2023/10/31 03:27:19;;;;;;;33.95;23.08;;;19.40;99.90;;;;;;5066204;28;20047;-69
2023/10/31 03:29:45;;;;;;;30.35;24.23;;;20.10;99.90;;;;;;5065768;28;20040;-71
2023/10/31 03:32:11;;;;;;;30.02;22.08;;;19.30;99.90;;;;;;5066425;28;20055;-70
2023/10/31 03:34:37;;;;;;;30.60;24.42;;;20.10;99.90;;;;;;5074546;28;20167;-70
2023/10/31 03:37:03;;;;;;;29.60;26.55;;;20.10;99.90;;;;;;5049867;28;20546;-70
2023/10/31 03:39:28;;;;;;;27.48;24.77;;;19.20;99.90;;;;;;5066683;28;20067;-69
2023/10/31 03:41:54;;;;;;;27.33;24.73;;;19.20;99.90;;;;;;5080988;28;20402;-69
2023/10/31 03:44:20;;;;;;;30.85;24.33;;;19.20;99.90;;;;;;5065650;28;20044;-69
2023/10/31 03:46:45;;;;;;;28.83;25.52;;;19.20;99.90;;;;;;5064947;28;20105;-69
2023/10/31 03:49:11;;;;;;;30.85;24.52;;;19.90;99.90;;;;;;5066049;28;20040;-69
2023/10/31 03:51:36;;;;;;;26.48;23.38;;;19.40;99.90;;;;;;5066133;28;20041;-70
2023/10/31 03:54:02;;;;;;;26.83;24.02;;;19.30;99.90;;;;;;5066494;28;20052;-69
2023/10/31 03:56:27;;;;;;;27.33;22.42;;;19.70;99.90;;;;;;5064738;28;20600;-69
2023/10/31 03:58:53;;;;;;;29.52;26.30;;;20.00;99.90;;;;;;5065607;28;20059;-69
2023/10/31 04:01:19;;;;;;;27.42;22.52;;;20.60;99.90;;;;;;5065172;28;20044;-70
2023/10/31 04:03:44;;;;;;;28.48;23.15;;;19.30;99.90;;;;;;5079079;28;20039;-69
2023/10/31 04:06:10;;;;;;;30.75;25.15;;;20.10;99.90;;;;;;5065634;28;20619;-70
2023/10/31 04:08:35;;;;;;;30.95;24.20;;;19.50;99.90;;;;;;5064506;28;20405;-70
2023/10/31 04:11:01;;;;;;;32.17;24.85;;;20.20;99.90;;;;;;5066088;28;20075;-69
2023/10/31 04:13:26;;;;;;;28.15;23.67;;;20.10;99.90;;;;;;5065422;28;20116;-70
2023/10/31 04:15:52;;;;;;;30.15;23.83;;;19.40;99.90;;;;;;5065225;28;20040;-63
2023/10/31 04:18:18;;;;;;;28.92;24.08;;;19.90;99.90;;;;;;5065650;28;20048;-63
2023/10/31 04:20:44;;;;;;;25.90;23.17;;;19.50;99.90;;;;;;5026656;28;1037399;-63
2023/10/31 04:23:11;;;;;;;30.48;24.23;;;19.80;99.90;;;;;;5067283;28;20136;-63
2023/10/31 04:25:37;;;;;;;26.25;23.17;;;20.30;99.90;;;;;;5066984;28;20406;-62
2023/10/31 04:28:03;;;;;;;27.73;23.90;;;19.80;99.90;;;;;;5066005;28;20044;-62
2023/10/31 04:30:28;;;;;;;26.17;22.17;;;19.80;99.90;;;;;;5065166;28;20052;-62
2023/10/31 04:32:54;;;;;;;27.95;23.48;;;20.60;99.90;;;;;;5069590;28;20041;-64
2023/10/31 04:35:20;;;;;;;24.95;22.35;;;20.40;99.90;;;;;;5066671;28;20044;-62
2023/10/31 04:37:45;;;;;;;26.15;22.67;;;19.60;99.90;;;;;;5066949;28;20043;-63
2023/10/31 04:40:11;;;;;;;27.73;22.05;;;20.20;99.90;;;;;;5066214;28;20040;-62
2023/10/31 04:42:40;;;;;;;26.20;23.45;;;19.90;99.90;;;;;;5067341;28;20474;-63
2023/10/31 04:45:07;;;;;;;25.98;23.23;;;19.50;99.90;;;;;;5067052;28;20474;-61
2023/10/31 04:47:32;;;;;;;24.83;22.17;;;19.60;99.90;;;;;;5066639;28;20078;-64
2023/10/31 04:49:58;;;;;;;24.50;21.85;;;19.50;99.90;;;;;;5067793;28;20490;-63
2023/10/31 04:52:25;;;;;;;25.50;22.98;;;20.30;99.90;;;;;;5067597;28;20041;-62
2023/10/31 04:54:51;;;;;;;25.27;22.67;;;21.30;99.90;;;;;;5066858;28;20494;-63
2023/10/31 04:57:17;;;;;;;24.77;22.13;;;20.40;99.90;;;;;;5066405;28;20028;-62
2023/10/31 04:59:42;;;;;;;25.52;22.95;;;20.40;99.90;;;;;;5066537;28;20047;-62
2023/10/31 05:02:08;;;;;;;25.80;23.25;;;20.10;99.90;;;;;;5066108;28;20053;-62
2023/10/31 05:04:34;;;;;;;28.08;25.33;;;19.50;99.90;;;;;;5066350;28;20042;-63
2023/10/31 05:06:59;;;;;;;28.73;25.83;;;19.80;99.90;;;;;;5066511;28;20045;-63
2023/10/31 05:09:25;;;;;;;31.83;24.98;;;20.20;99.90;;;;;;5065856;28;20049;-63
2023/10/31 05:11:51;;;;;;;32.83;29.75;;;20.40;99.90;;;;;;5064483;28;20044;-62
2023/10/31 05:14:16;;;;;;;32.50;29.33;;;20.30;99.90;;;;;;5066024;28;20070;-63
2023/10/31 05:16:43;;;;;;;35.75;32.13;;;20.40;99.90;;;;;;5066546;28;20048;-62
2023/10/31 05:19:09;;;;;;;31.67;28.60;;;19.70;99.90;;;;;;5065980;28;20186;-62
2023/10/31 05:21:35;;;;;;;30.75;27.63;;;20.00;99.90;;;;;;5060003;28;20383;-63
2023/10/31 05:24:02;;;;;;;29.80;26.85;;;19.60;99.90;;;;;;5069633;28;20037;-62
2023/10/31 05:26:29;;;;;;;34.55;31.27;;;20.40;99.90;;;;;;5069405;28;20042;-68
2023/10/31 05:28:55;;;;;;;36.08;32.50;;;20.30;99.90;;;;;;5069619;28;20106;-69
2023/10/31 05:31:20;;;;;;;35.50;32.03;;;19.90;99.90;;;;;;5069170;28;20040;-69
2023/10/31 05:33:46;;;;;;;33.45;30.15;;;20.50;99.90;;;;;;5069097;28;20052;-69
2023/10/31 05:36:19;;;;;;;33.60;30.05;;;20.10;99.90;;;;;;5069739;28;20076;-69
2023/10/31 05:38:44;;;;;;;37.25;33.63;;;20.70;99.90;;;;;;5066766;28;20040;-69
2023/10/31 05:41:10;;;;;;;38.45;35.00;;;20.90;99.90;;;;;;5068765;28;20505;-69
2023/10/31 05:43:35;;;;;;;40.85;36.65;;;20.50;99.90;;;;;;5069181;28;20124;-68
2023/10/31 05:46:01;;;;;;;37.42;33.92;;;20.40;99.90;;;;;;5068955;28;20055;-69
2023/10/31 05:48:26;;;;;;;38.55;34.75;;;20.40;99.90;;;;;;5067895;28;20045;-68
2023/10/31 05:50:52;;;;;;;41.47;37.65;;;20.50;99.90;;;;;;5068600;28;20072;-68
2023/10/31 05:53:18;;;;;;;42.63;38.58;;;19.70;99.90;;;;;;5069229;28;20394;-69
2023/10/31 05:55:43;;;;;;;39.33;35.40;;;20.40;99.90;;;;;;5068014;28;20440;-67
2023/10/31 05:58:09;;;;;;;40.95;36.70;;;19.60;99.90;;;;;;5063764;28;20044;-68
2023/10/31 06:00:35;;;;;;;41.25;37.08;;;20.40;99.90;;;;;;5067196;28;20141;-68
2023/10/31 06:03:00;;;;;;;42.67;38.50;;;19.70;17.70;;;;;;5068149;28;20052;-68
2023/10/31 06:05:26;;;;;;;42.03;38.05;;;19.60;99.90;;;;;;5066597;28;20123;-68
2023/10/31 06:07:51;;;;;;;43.38;39.13;;;20.10;99.90;;;;;;5067860;28;20075;-68
2023/10/31 06:10:17;;;;;;;42.85;38.55;;;19.70;99.90;;;;;;5068470;28;20044;-67
2023/10/31 06:12:43;;;;;;;43.28;38.63;;;20.00;99.90;;;;;;5063149;28;20033;-68
2023/10/31 06:15:09;;;;;;;42.72;38.53;;;20.30;1.00;;;;;;5057676;28;20083;-68
2023/10/31 06:17:34;;;;;;;41.67;37.58;;;20.20;1.00;;;;;;5070014;28;20037;-67
2023/10/31 06:20:01;;;;;;;42.60;38.20;;;20.00;99.90;;;;;;5067459;28;20728;-68
2023/10/31 06:22:26;;;;;;;41.75;37.55;;;20.40;1.00;;;;;;5068712;28;20044;-68
2023/10/31 06:24:52;;;;;;;42.03;37.83;;;19.80;99.90;;;;;;5068162;28;20494;-69
2023/10/31 06:27:17;;;;;;;42.60;38.40;;;20.20;1.00;;;;;;5071293;28;20064;-68
2023/10/31 06:29:43;;;;;;;40.97;36.97;;;19.90;99.90;;;;;;5065505;28;20044;-67
2023/10/31 06:32:08;;;;;;;40.65;36.72;;;19.60;99.90;;;;;;5063250;28;20052;-68
2023/10/31 06:34:34;;;;;;;39.70;35.70;;;20.10;99.90;;;;;;5069035;28;20390;-68
2023/10/31 06:36:59;;;;;;;42.20;38.38;;;21.20;26.80;;;;;;5066542;28;20153;-63
2023/10/31 06:39:25;;;;;;;41.17;37.38;;;20.00;1.00;;;;;;5068198;28;20039;-62
2023/10/31 06:41:55;;;;;;;41.30;37.25;;;20.00;1.00;;;;;;5067838;28;20468;-61
2023/10/31 06:44:20;;;;;;;40.95;36.83;;;20.60;1.00;;;;;;5066208;28;20043;-62
2023/10/31 06:46:46;;;;;;;39.28;35.50;;;19.90;1.00;;;;;;5067810;28;20040;-63
2023/10/31 06:49:11;;;;;;;38.85;34.95;;;19.60;1.00;;;;;;5062706;28;20062;-62
2023/10/31 06:51:37;;;;;;;37.38;33.22;;;19.80;1.00;;;;;;5066341;28;20563;-63
2023/10/31 06:54:02;;;;;;;38.50;34.70;;;19.80;1.00;;;;;;5066424;28;20036;-63
2023/10/31 06:56:28;;;;;;;39.47;35.67;;;20.10;1.00;;;;;;5066215;28;20552;-65
2023/10/31 06:58:54;;;;;;;39.10;34.90;;;19.90;1.00;;;;;;5067328;28;20048;-63
2023/10/31 07:01:20;;;;;;;40.17;36.03;;;20.10;1.00;;;;;;5066403;28;20043;-62
2023/10/31 07:03:46;;;;;;;39.53;35.92;;;20.20;1.00;;;;;;5064554;28;20042;-62
2023/10/31 07:06:11;;;;;;;41.65;37.50;;;19.80;1.00;;;;;;5064428;28;20043;-63
2023/10/31 07:08:37;;;;;;;44.47;39.97;;;19.80;98.10;;;;;;5066764;28;20697;-61
2023/10/31 07:11:03;;;;;;;40.03;35.95;;;20.10;99.90;;;;;;5067622;28;20040;-62
2023/10/31 07:13:29;;;;;;;40.42;36.58;;;19.80;99.90;;;;;;5083348;28;20152;-63
2023/10/31 07:15:55;;;;;;;41.30;36.95;;;20.20;99.90;;;;;;5061809;28;20115;-62
2023/10/31 07:18:20;;;;;;;40.78;36.90;;;20.20;1.00;;;;;;5062133;28;20399;-64
2023/10/31 07:20:46;;;;;;;38.33;34.90;;;20.30;99.90;;;;;;5061277;28;20064;-61
2023/10/31 07:23:11;;;;;;;39.17;35.53;;;20.10;99.90;;;;;;5064399;28;20047;-63
2023/10/31 07:25:37;;;;;;;41.03;37.50;;;20.20;1.00;;;;;;5066019;28;20052;-62
2023/10/31 07:28:02;;;;;;;41.33;37.63;;;20.20;1.00;;;;;;5065068;28;20517;-62
2023/10/31 07:30:28;;;;;;;38.55;35.15;;;20.30;67.90;;;;;;5070853;28;20574;-61
2023/10/31 07:32:53;;;;;;;39.08;35.33;;;20.10;99.90;;;;;;5065775;28;20402;-62
2023/10/31 07:35:19;;;;;;;37.17;33.72;;;20.30;99.90;;;;;;5063610;28;20051;-63
2023/10/31 07:37:45;;;;;;;37.63;34.33;;;20.20;99.90;;;;;;5063828;28;20486;-62
2023/10/31 07:40:11;;;;;;;37.08;33.67;;;20.00;99.90;;;;;;5065618;28;20044;-63
2023/10/31 07:42:37;;;;;;;37.50;34.25;;;20.20;99.90;;;;;;5063755;28;20041;-61
2023/10/31 07:45:03;;;;;;;36.70;33.33;;;20.20;99.90;;;;;;5059871;28;20513;-62
2023/10/31 07:47:28;;;;;;;37.05;33.75;;;20.00;99.90;;;;;;5062646;28;20047;-62
2023/10/31 07:49:54;;;;;;;37.60;34.22;;;20.20;99.90;;;;;;5061663;28;20040;-62
2023/10/31 07:52:20;;;;;;;36.00;32.80;;;20.20;99.90;;;;;;5064181;28;20796;-62
2023/10/31 07:54:45;;;;;;;37.28;33.85;;;20.20;99.90;;;;;;5065935;28;20048;-63
2023/10/31 07:57:11;;;;;;;38.90;35.58;;;20.70;99.90;;;;;;5061466;28;20040;-65
2023/10/31 07:59:36;;;;;;;37.65;34.25;;;19.70;99.90;;;;;;5062377;28;20036;-62
2023/10/31 08:02:02;;;;;;;37.65;34.28;;;20.10;99.90;;;;;;5062797;28;20043;-64
2023/10/31 08:04:29;;;;;;;37.63;34.17;;;19.90;1.00;;;;;;5064335;28;20308;-62
2023/10/31 08:06:55;;;;;;;37.33;34.00;;;20.10;99.90;;;;;;5060553;28;20066;-61
2023/10/31 08:09:21;;;;;;;36.83;33.38;;;19.70;99.90;;;;;;5063010;28;20542;-63
2023/10/31 08:11:46;;;;;;;38.22;34.60;;;19.90;99.90;;;;;;5045970;28;20051;-62
2023/10/31 08:14:12;;;;;;;35.30;31.60;;;21.00;29.40;;;;;;5064254;28;20044;-63
2023/10/31 08:16:37;;;;;;;37.92;34.45;;;20.40;1.00;;;;;;5061665;28;20047;-64
2023/10/31 08:19:04;;;;;;;36.97;33.65;;;19.80;99.90;;;;;;5064489;28;20074;-62
2023/10/31 08:21:33;;;;;;;35.33;31.90;;;20.10;15.60;;;;;;5062650;28;20045;-63
2023/10/31 08:24:00;;;;;;;35.13;31.92;;;20.50;99.90;;;;;;5059365;28;20083;-65
2023/10/31 08:26:25;;;;;;;34.80;31.58;;;20.20;99.90;;;;;;5062728;28;20090;-63
2023/10/31 08:28:51;;;;;;;37.42;34.33;;;19.40;1.00;;;;;;5060716;28;20680;-64
2023/10/31 08:31:17;;;;;;;36.42;33.15;;;19.60;99.90;;;;;;5064127;28;20067;-64
2023/10/31 08:33:42;;;;;;;36.97;33.38;;;20.20;99.90;;;;;;5062902;28;20050;-64
2023/10/31 08:36:08;;;;;;;33.55;30.58;;;19.60;1.00;;;;;;5061419;28;20040;-62
2023/10/31 08:38:34;;;;;;;37.70;34.03;;;19.30;99.90;;;;;;5064003;28;20037;-63
2023/10/31 08:41:00;;;;;;;35.22;32.13;;;19.50;1.00;;;;;;5064345;28;20500;-64
2023/10/31 08:43:25;;;;;;;34.70;31.65;;;19.80;1.00;;;;;;5065822;28;20036;-63
2023/10/31 08:45:51;;;;;;;34.72;31.52;;;20.30;1.00;;;;;;5062038;28;20067;-65
2023/10/31 08:48:17;;;;;;;38.03;34.72;;;19.20;99.90;;;;;;5058486;28;20556;-63
2023/10/31 08:50:42;;;;;;;35.53;32.13;;;20.30;99.90;;;;;;5059375;28;20044;-63
2023/10/31 08:53:08;;;;;;;38.45;34.80;;;20.40;99.90;;;;;;5060748;28;20119;-63
2023/10/31 08:55:33;;;;;;;38.53;34.90;;;19.10;99.90;;;;;;5060592;28;20051;-66
2023/10/31 08:57:59;;;;;;;36.58;33.45;;;20.30;99.90;;;;;;5063616;28;20048;-71
2023/10/31 09:00:24;;;;;;;35.85;32.75;;;20.20;99.90;;;;;;5060812;28;21298;-69
2023/10/31 09:02:50;;;;;;;36.10;33.03;;;20.00;99.90;;;;;;5062939;28;20425;-70
2023/10/31 09:05:15;;;;;;;36.85;33.60;;;20.20;99.90;;;;;;5059548;28;20376;-69
2023/10/31 09:07:41;;;;;;;36.45;33.25;;;19.20;99.90;;;;;;5063671;28;20055;-70
2023/10/31 09:10:07;;;;;;;35.53;32.10;;;20.10;99.90;;;;;;5064544;28;20037;-70
2023/10/31 09:12:33;;;;;;;37.05;33.83;;;19.50;99.90;;;;;;5062061;28;20067;-70
2023/10/31 09:14:58;;;;;;;36.65;33.50;;;20.30;99.90;;;;;;5063379;28;20040;-70
2023/10/31 09:17:24;;;;;;;37.40;33.75;;;19.50;99.90;;;;;;5062268;28;20150;-70
2023/10/31 09:19:49;;;;;;;36.20;32.53;;;20.30;99.90;;;;;;5059767;28;20506;-65
2023/10/31 09:22:16;;;;;;;36.10;32.70;;;20.60;99.90;;;;;;5066212;28;20040;-71
2023/10/31 09:24:42;;;;;;;36.65;33.00;;;20.20;99.90;;;;;;5062803;28;20043;-72
2023/10/31 09:27:09;;;;;;;34.35;31.00;;;19.90;99.90;;;;;;5066392;28;20174;-71
2023/10/31 09:29:34;;;;;;;35.05;31.83;;;19.60;99.90;;;;;;5065277;28;20044;-72
2023/10/31 09:32:00;;;;;;;34.53;31.40;;;20.60;99.90;;;;;;5066968;28;20028;-70
2023/10/31 09:34:26;;;;;;;34.05;31.00;;;19.40;99.90;;;;;;5064025;28;20141;-71
2023/10/31 09:36:51;;;;;;;33.42;30.60;;;19.80;99.90;;;;;;5065437;28;20403;-71
2023/10/31 09:39:17;;;;;;;32.53;29.35;;;20.50;99.90;;;;;;5066144;28;20037;-70
2023/10/31 09:41:42;;;;;;;33.25;30.33;;;20.60;99.90;;;;;;5065191;28;20041;-68
2023/10/31 09:44:08;;;;;;;34.10;31.00;;;20.60;99.90;;;;;;5067134;28;20062;-70
2023/10/31 09:46:35;;;;;;;31.92;29.02;;;20.40;99.90;;;;;;5079926;28;20519;-70
2023/10/31 09:49:00;;;;;;;32.50;29.42;;;19.80;99.90;;;;;;5063809;28;20088;-71
2023/10/31 09:51:27;;;;;;;32.20;28.92;;;19.90;99.90;;;;;;5065916;28;20072;-70
2023/10/31 09:53:55;;;;;;;31.52;28.38;;;19.40;99.90;;;;;;5060746;28;20044;-67
2023/10/31 09:56:22;;;;;;;29.85;26.85;;;19.30;99.90;;;;;;5060945;28;20110;-71
2023/10/31 09:58:47;;;;;;;32.78;29.75;;;21.40;99.90;;;;;;5065340;28;20036;-70
2023/10/31 10:01:14;;;;;;;33.58;30.02;;;19.60;99.90;;;;;;5060208;28;20828;-68
2023/10/31 10:03:40;;;;;;;30.42;27.65;;;19.70;99.90;;;;;;5060737;28;20462;-69
2023/10/31 10:06:06;;;;;;;31.85;28.75;;;20.10;99.90;;;;;;5062942;28;20046;-62
2023/10/31 10:08:32;;;;;;;31.65;28.48;;;20.80;99.90;;;;;;5066519;28;20040;-64
2023/10/31 10:10:57;;;;;;;34.08;30.73;;;20.10;99.90;;;;;;5064147;28;20049;-64
2023/10/31 10:13:23;;;;;;;36.90;33.60;;;20.40;99.90;;;;;;5063797;28;20148;-65
2023/10/31 10:15:54;;;;;;;32.10;29.02;;;20.00;99.90;;;;;;5062958;28;20044;-66
2023/10/31 10:18:27;;;;;;;35.00;31.70;;;22.00;99.90;;;;;;5063312;28;20079;-67
2023/10/31 10:21:01;;;;;;;33.45;30.13;;;19.70;99.90;;;;;;5061060;28;20250;-67
2023/10/31 10:23:27;;;;;;;35.08;31.65;;;20.50;99.90;;;;;;5063218;28;20040;-66
2023/10/31 10:25:54;;;;;;;34.13;30.40;;;21.00;99.90;;;;;;5064868;28;20439;-67
2023/10/31 10:28:20;;;;;;;34.92;31.20;;;19.90;99.90;;;;;;5064140;28;20102;-67
2023/10/31 10:30:49;;;;;;;35.00;31.58;;;19.50;99.90;;;;;;5061643;28;20707;-65
2023/10/31 10:33:15;;;;;;;35.40;31.85;;;20.10;99.90;;;;;;5060107;28;20639;-66
2023/10/31 10:35:42;;;;;;;32.25;28.85;;;20.80;99.90;;;;;;5061932;28;20040;-66
2023/10/31 10:38:13;;;;;;;35.78;29.80;;;20.30;99.90;;;;;;5061918;28;20119;-69
2023/10/31 10:40:48;;;;;;;33.85;30.73;;;20.30;99.90;;;;;;5061930;28;20036;-69
2023/10/31 10:43:36;;;;;;;31.90;28.77;;;19.90;99.90;;;;;;5062086;28;20040;-70
2023/10/31 10:46:04;;;;;;;33.80;30.92;;;20.60;99.90;;;;;;5060373;28;20032;-69
2023/10/31 10:48:35;;;;;;;35.25;31.55;;;19.20;99.90;;;;;;5060629;28;20112;-69
2023/10/31 10:51:11;;;;;;;28.90;26.20;;;20.60;99.90;;;;;;5062496;28;20094;-67
2023/10/31 10:53:50;;;;;;;30.17;27.33;;;20.60;99.90;;;;;;5059866;28;20413;-69
2023/10/31 10:56:28;;;;;;;32.65;29.42;;;20.60;99.90;;;;;;5064840;28;20119;-68
2023/10/31 10:59:03;;;;;;;33.20;30.25;;;20.30;99.90;;;;;;5059248;28;20498;-66
2023/10/31 11:01:31;;;;;;;33.77;30.80;;;20.40;99.90;;;;;;5076394;28;20057;-67
2023/10/31 11:03:57;;;;;;;30.27;27.60;;;19.80;99.90;;;;;;5064863;28;20071;-68
2023/10/31 11:06:23;;;;;;;31.77;29.20;;;20.00;99.90;;;;;;5061744;28;20068;-66
2023/10/31 11:08:51;;;;;;;28.48;26.08;;;19.40;99.90;;;;;;5063788;28;20037;-67
2023/10/31 11:11:19;;;;;;;29.83;27.25;;;19.80;99.90;;;;;;5079707;28;20134;-66
2023/10/31 11:13:45;;;;;;;31.35;28.55;;;19.30;99.90;;;;;;5058359;28;20067;-68
2023/10/31 11:16:17;;;;;;;31.38;28.58;;;20.00;99.90;;;;;;5061487;28;20032;-71
2023/10/31 11:18:43;;;;;;;30.17;27.48;;;20.00;99.90;;;;;;5060103;28;20036;-69
2023/10/31 11:21:09;;;;;;;34.72;31.23;;;19.40;99.90;;;;;;5060745;28;20044;-70
2023/10/31 11:23:35;;;;;;;32.05;28.77;;;20.80;99.90;;;;;;5062135;28;20564;-70
2023/10/31 11:26:01;;;;;;;31.40;28.40;;;19.80;99.90;;;;;;5062684;28;20430;-71
2023/10/31 11:28:27;;;;;;;32.40;29.20;;;19.80;99.90;;;;;;5057236;28;20094;-70
2023/10/31 11:30:58;;;;;;;29.25;26.75;;;19.40;99.90;;;;;;5060530;28;20044;-70
2023/10/31 11:33:24;;;;;;;30.20;27.23;;;19.40;99.90;;;;;;5061900;28;20045;-69
2023/10/31 11:35:51;;;;;;;31.00;28.17;;;21.00;99.90;;;;;;5063029;28;20508;-70
2023/10/31 11:38:16;;;;;;;32.53;29.63;;;20.10;99.90;;;;;;5063877;28;20054;-70
2023/10/31 11:40:48;;;;;;;35.65;32.42;;;20.20;99.90;;;;;;5063999;28;20040;-69
2023/10/31 11:43:13;;;;;;;33.03;29.83;;;20.70;99.90;;;;;;5063154;28;20036;-70
2023/10/31 11:45:40;;;;;;;34.00;30.80;;;20.90;99.90;;;;;;5062425;28;20123;-70
2023/10/31 11:48:06;;;;;;;33.55;30.33;;;20.80;99.90;;;;;;5062608;28;20119;-69
2023/10/31 11:50:33;;;;;;;34.72;31.58;;;20.00;99.90;;;;;;5062150;28;21799;-69
2023/10/31 11:53:12;;;;;;;36.88;33.13;;;20.40;99.90;;;;;;5064990;28;20036;-70
2023/10/31 11:55:41;;;;;;;35.08;31.88;;;20.00;99.90;;;;;;5060903;28;20049;-69
2023/10/31 11:58:18;;;;;;;37.47;33.75;;;19.90;99.90;;;;;;5059956;28;20119;-70
2023/10/31 12:00:45;;;;;;;35.40;32.05;;;19.50;99.90;;;;;;5065471;28;20044;-68
2023/10/31 12:03:14;;;;;;;35.20;31.60;;;19.80;99.90;;;;;;5063722;28;20585;-68
2023/10/31 12:05:40;;;;;;;36.65;32.75;;;20.60;99.90;;;;;;5061264;28;20036;-69
2023/10/31 12:08:05;;;;;;;38.33;34.53;;;21.00;99.90;;;;;;5062477;28;20094;-67
2023/10/31 12:10:31;;;;;;;35.67;32.08;;;21.00;99.90;;;;;;5063940;28;20478;-69
2023/10/31 12:13:00;;;;;;;36.80;32.97;;;21.00;99.90;;;;;;5064710;28;20172;-68
2023/10/31 12:15:26;;;;;;;35.30;31.85;;;19.60;99.90;;;;;;5061400;28;20042;-66
2023/10/31 12:17:52;;;;;;;36.63;33.10;;;20.10;99.90;;;;;;5062799;28;20040;-69
2023/10/31 12:20:17;;;;;;;39.33;35.63;;;20.20;99.90;;;;;;5063995;28;20052;-67
2023/10/31 12:22:43;;;;;;;37.92;34.13;;;20.70;99.90;;;;;;5062545;28;20219;-68